createdAt,value
2018-08-25T00:00:35.717Z,100556.30
2018-08-25T00:01:41.194Z,100552.37
2018-08-25T00:02:46.631Z,100552.09
2018-08-25T00:03:52.114Z,100548.56
2018-08-25T00:04:57.702Z,100546.35
2018-08-25T00:06:03.194Z,100540.06
2018-08-25T00:07:08.630Z,100544.41
2018-08-25T00:08:14.078Z,100541.77
2018-08-25T00:09:19.523Z,100540.83
2018-08-25T00:10:24.992Z,100539.44
2018-08-25T00:11:30.484Z,100534.38
2018-08-25T00:12:35.884Z,100538.43
2018-08-25T00:13:41.309Z,100533.37
2018-08-25T00:14:46.789Z,100528.00
2018-08-25T00:15:52.689Z,100522.78
2018-08-25T00:16:58.220Z,100524.31
2018-08-25T00:18:03.658Z,100515.88
2018-08-25T00:19:09.172Z,100517.81
2018-08-25T00:20:14.746Z,100512.09
2018-08-25T00:21:20.229Z,100514.98
2018-08-25T00:22:25.789Z,100508.94
2018-08-25T00:23:31.397Z,100510.94
2018-08-25T00:24:36.817Z,100505.66
2018-08-25T00:25:42.257Z,100505.59
2018-08-25T00:26:47.798Z,100498.17
2018-08-25T00:27:53.289Z,100502.83
2018-08-25T00:28:58.761Z,100501.07
2018-08-25T00:30:06.382Z,100499.08
2018-08-25T00:31:17.045Z,100497.34
2018-08-25T00:32:22.573Z,100500.23
2018-08-25T00:33:28.049Z,100496.66
2018-08-25T00:34:33.466Z,100496.23
2018-08-25T00:35:38.895Z,100492.48
2018-08-25T00:36:44.423Z,100492.92
2018-08-25T00:37:49.913Z,100488.30
2018-08-25T00:38:55.403Z,100488.61
2018-08-25T00:40:00.802Z,100489.95
2018-08-25T00:41:07.216Z,100492.13
2018-08-25T00:42:12.773Z,100488.73
2018-08-25T00:43:18.627Z,100493.80
2018-08-25T00:44:24.091Z,100489.27
2018-08-25T00:45:29.562Z,100490.05
2018-08-25T00:46:34.990Z,100492.56
2018-08-25T00:47:40.602Z,100490.91
2018-08-25T00:48:46.134Z,100489.88
2018-08-25T00:49:51.618Z,100494.56
2018-08-25T00:50:57.281Z,100483.61
2018-08-25T00:52:02.914Z,100490.36
2018-08-25T00:53:08.661Z,100483.47
2018-08-25T00:54:14.234Z,100490.81
2018-08-25T00:55:19.762Z,100484.19
2018-08-25T00:56:25.241Z,100487.16
2018-08-25T00:57:30.765Z,100484.19
2018-08-25T00:58:36.398Z,100489.44
2018-08-25T00:59:42.075Z,100484.14
2018-08-25T01:00:47.988Z,100488.12
2018-08-25T01:01:53.489Z,100483.74
2018-08-25T01:02:59.034Z,100480.23
2018-08-25T01:04:04.725Z,100484.61
2018-08-25T01:05:10.252Z,100481.20
2018-08-25T01:06:15.776Z,100479.98
2018-08-25T01:07:21.374Z,100474.45
2018-08-25T01:08:26.877Z,100466.94
2018-08-25T01:09:32.393Z,100473.09
2018-08-25T01:10:38.744Z,100465.16
2018-08-25T01:11:44.286Z,100462.06
2018-08-25T01:12:49.775Z,100461.13
2018-08-25T01:13:55.309Z,100460.39
2018-08-25T01:15:00.773Z,100456.81
2018-08-25T01:16:06.593Z,100451.61
2018-08-25T01:17:12.068Z,100453.47
2018-08-25T01:18:17.530Z,100454.25
2018-08-25T01:19:23.093Z,100453.91
2018-08-25T01:20:28.570Z,100453.65
2018-08-25T01:21:34.020Z,100454.88
2018-08-25T01:22:39.578Z,100446.96
2018-08-25T01:23:45.035Z,100450.50
2018-08-25T01:24:50.615Z,100446.52
2018-08-25T01:25:56.042Z,100437.81
2018-08-25T01:27:01.597Z,100430.33
2018-08-25T01:28:07.055Z,100434.54
2018-08-25T01:29:12.560Z,100434.29
2018-08-25T01:30:18.048Z,100434.41
2018-08-25T01:31:23.562Z,100432.88
2018-08-25T01:32:29.025Z,100440.31
2018-08-25T01:33:34.450Z,100432.93
2018-08-25T01:34:39.894Z,100430.66
2018-08-25T01:35:45.356Z,100428.43
2018-08-25T01:36:50.829Z,100425.45
2018-08-25T01:37:56.348Z,100424.81
2018-08-25T01:39:02.292Z,100427.12
2018-08-25T01:40:07.759Z,100422.64
2018-08-25T01:41:13.191Z,100422.67
2018-08-25T01:42:18.650Z,100420.62
2018-08-25T01:43:24.246Z,100425.39
2018-08-25T01:44:29.714Z,100426.50
2018-08-25T01:45:35.407Z,100429.03
2018-08-25T01:46:40.876Z,100435.34
2018-08-25T01:47:46.350Z,100434.14
2018-08-25T01:48:52.164Z,100441.66
2018-08-25T01:49:57.628Z,100425.12
2018-08-25T01:51:03.141Z,100423.45
2018-08-25T01:52:08.566Z,100427.13
2018-08-25T01:53:14.016Z,100418.58
2018-08-25T01:54:19.578Z,100422.23
2018-08-25T01:55:25.087Z,100412.18
2018-08-25T01:56:30.660Z,100411.30
2018-08-25T01:57:36.109Z,100411.67
2018-08-25T01:58:41.621Z,100410.07
2018-08-25T01:59:47.213Z,100411.82
2018-08-25T02:00:52.639Z,100405.88
2018-08-25T02:01:58.051Z,100400.04
2018-08-25T02:03:03.649Z,100403.26
2018-08-25T02:04:09.197Z,100400.74
2018-08-25T02:05:14.741Z,100396.17
2018-08-25T02:06:20.168Z,100396.05
2018-08-25T02:07:25.606Z,100394.36
2018-08-25T02:08:31.142Z,100390.84
2018-08-25T02:09:36.532Z,100383.73
2018-08-25T02:10:41.997Z,100390.97
2018-08-25T02:11:47.541Z,100386.37
2018-08-25T02:12:52.990Z,100385.36
2018-08-25T02:13:58.457Z,100383.55
2018-08-25T02:15:03.950Z,100381.40
2018-08-25T02:16:09.401Z,100377.30
2018-08-25T02:17:14.846Z,100376.31
2018-08-25T02:18:20.439Z,100373.77
2018-08-25T02:19:25.941Z,100377.48
2018-08-25T02:20:31.418Z,100376.37
2018-08-25T02:21:36.922Z,100369.84
2018-08-25T02:22:42.311Z,100364.33
2018-08-25T02:23:47.754Z,100370.55
2018-08-25T02:24:53.556Z,100369.13
2018-08-25T02:25:59.211Z,100361.77
2018-08-25T02:27:05.921Z,100362.23
2018-08-25T02:28:11.397Z,100357.02
2018-08-25T02:29:16.842Z,100354.75
2018-08-25T02:30:22.270Z,100354.22
2018-08-25T02:31:27.830Z,100354.62
2018-08-25T02:32:33.641Z,100354.86
2018-08-25T02:33:39.082Z,100352.80
2018-08-25T02:34:44.533Z,100353.92
2018-08-25T02:35:49.961Z,100350.45
2018-08-25T02:36:55.427Z,100350.23
2018-08-25T02:38:01.236Z,100349.27
2018-08-25T02:39:11.621Z,100347.70
2018-08-25T02:40:17.210Z,100350.09
2018-08-25T02:41:22.829Z,100354.02
2018-08-25T02:42:28.450Z,100355.95
2018-08-25T02:43:33.893Z,100364.62
2018-08-25T02:44:39.374Z,100374.12
2018-08-25T02:45:44.874Z,100374.46
2018-08-25T02:46:50.298Z,100370.53
2018-08-25T02:47:56.214Z,100375.99
2018-08-25T02:49:01.690Z,100373.94
2018-08-25T02:50:07.196Z,100373.55
2018-08-25T02:51:12.579Z,100374.88
2018-08-25T02:52:18.229Z,100372.39
2018-08-25T02:53:23.802Z,100366.32
2018-08-25T02:54:29.700Z,100368.55
2018-08-25T02:55:35.100Z,100373.06
2018-08-25T02:56:40.673Z,100367.91
2018-08-25T02:57:46.136Z,100362.06
2018-08-25T02:58:51.609Z,100363.92
2018-08-25T02:59:57.077Z,100360.83
2018-08-25T03:01:02.545Z,100351.94
2018-08-25T03:02:08.030Z,100355.03
2018-08-25T03:03:13.432Z,100352.21
2018-08-25T03:04:19.187Z,100349.33
2018-08-25T03:05:24.798Z,100348.93
2018-08-25T03:06:30.207Z,100350.53
2018-08-25T03:07:35.665Z,100353.61
2018-08-25T03:08:41.112Z,100350.27
2018-08-25T03:09:46.566Z,100355.73
2018-08-25T03:10:52.109Z,100345.70
2018-08-25T03:11:57.611Z,100349.73
2018-08-25T03:13:03.032Z,100346.39
2018-08-25T03:14:08.869Z,100348.67
2018-08-25T03:15:14.440Z,100341.22
2018-08-25T03:16:19.920Z,100345.67
2018-08-25T03:17:25.374Z,100337.33
2018-08-25T03:18:30.900Z,100334.81
2018-08-25T03:19:36.377Z,100335.59
2018-08-25T03:20:41.822Z,100335.19
2018-08-25T03:21:47.248Z,100336.05
2018-08-25T03:22:52.634Z,100333.59
2018-08-25T03:23:58.516Z,100331.48
2018-08-25T03:25:04.016Z,100328.48
2018-08-25T03:26:09.493Z,100319.94
2018-08-25T03:27:14.968Z,100322.34
2018-08-25T03:28:20.346Z,100320.34
2018-08-25T03:29:25.799Z,100309.70
2018-08-25T03:30:31.367Z,100315.30
2018-08-25T03:31:36.777Z,100315.63
2018-08-25T03:32:42.273Z,100309.71
2018-08-25T03:33:47.718Z,100306.88
2018-08-25T03:34:53.135Z,100305.08
2018-08-25T03:35:58.975Z,100300.34
2018-08-25T03:37:04.520Z,100297.62
2018-08-25T03:38:09.952Z,100293.39
2018-08-25T03:39:15.394Z,100292.56
2018-08-25T03:40:20.825Z,100292.94
2018-08-25T03:41:26.293Z,100294.40
2018-08-25T03:42:31.869Z,100283.53
2018-08-25T03:43:37.361Z,100286.82
2018-08-25T03:44:42.837Z,100286.41
2018-08-25T03:45:48.257Z,100283.33
2018-08-25T03:46:53.742Z,100276.80
2018-08-25T03:47:59.266Z,100282.05
2018-08-25T03:49:04.732Z,100284.36
2018-08-25T03:50:10.165Z,100276.96
2018-08-25T03:51:15.641Z,100273.84
2018-08-25T03:52:21.003Z,100272.13
2018-08-25T03:53:26.618Z,100269.05
2018-08-25T03:54:32.057Z,100269.88
2018-08-25T03:55:37.745Z,100262.27
2018-08-25T03:56:43.226Z,100265.31
2018-08-25T03:57:48.818Z,100267.78
2018-08-25T03:58:54.317Z,100265.61
2018-08-25T03:59:59.873Z,100269.62
2018-08-25T04:01:05.339Z,100264.73
2018-08-25T04:02:10.806Z,100267.36
2018-08-25T04:03:16.237Z,100268.70
2018-08-25T04:04:21.810Z,100266.39
2018-08-25T04:05:27.282Z,100265.11
2018-08-25T04:06:32.672Z,100264.69
2018-08-25T04:07:38.105Z,100263.55
2018-08-25T04:08:43.593Z,100268.86
2018-08-25T04:09:49.021Z,100262.12
2018-08-25T04:10:54.482Z,100258.84
2018-08-25T04:11:59.963Z,100260.02
2018-08-25T04:13:05.565Z,100253.08
2018-08-25T04:14:12.261Z,100253.63
2018-08-25T04:15:17.834Z,100256.92
2018-08-25T04:16:23.252Z,100251.98
2018-08-25T04:17:28.847Z,100247.50
2018-08-25T04:18:34.351Z,100250.78
2018-08-25T04:19:39.866Z,100241.22
2018-08-25T04:20:45.260Z,100240.13
2018-08-25T04:21:51.170Z,100245.55
2018-08-25T04:22:56.717Z,100238.67
2018-08-25T04:24:02.230Z,100242.01
2018-08-25T04:25:08.145Z,100242.58
2018-08-25T04:26:13.706Z,100244.78
2018-08-25T04:27:19.100Z,100238.73
2018-08-25T04:28:24.518Z,100239.44
2018-08-25T04:29:29.958Z,100235.16
2018-08-25T04:30:35.535Z,100241.52
2018-08-25T04:31:41.066Z,100235.16
2018-08-25T04:32:46.481Z,100239.59
2018-08-25T04:33:51.939Z,100237.59
2018-08-25T04:34:57.410Z,100239.65
2018-08-25T04:36:02.964Z,100239.12
2018-08-25T04:37:08.534Z,100242.64
2018-08-25T04:38:14.045Z,100236.67
2018-08-25T04:39:19.571Z,100232.25
2018-08-25T04:40:25.028Z,100230.08
2018-08-25T04:41:30.629Z,100231.08
2018-08-25T04:42:36.126Z,100227.88
2018-08-25T04:43:41.537Z,100235.94
2018-08-25T04:44:46.989Z,100232.39
2018-08-25T04:45:52.401Z,100232.22
2018-08-25T04:46:57.788Z,100230.99
2018-08-25T04:48:03.436Z,100230.70
2018-08-25T04:49:08.935Z,100232.22
2018-08-25T04:50:14.345Z,100231.93
2018-08-25T04:51:19.880Z,100227.45
2018-08-25T04:52:25.362Z,100234.45
2018-08-25T04:53:30.809Z,100235.36
2018-08-25T04:54:36.241Z,100238.05
2018-08-25T04:55:41.774Z,100233.79
2018-08-25T04:56:47.315Z,100239.08
2018-08-25T04:57:52.899Z,100231.98
2018-08-25T04:58:58.421Z,100236.53
2018-08-25T05:00:04.036Z,100237.45
2018-08-25T05:01:09.676Z,100231.99
2018-08-25T05:02:15.125Z,100239.02
2018-08-25T05:03:20.628Z,100235.84
2018-08-25T05:04:26.033Z,100234.84
2018-08-25T05:05:31.458Z,100235.98
2018-08-25T05:06:36.861Z,100235.92
2018-08-25T05:07:42.501Z,100234.70
2018-08-25T05:08:47.916Z,100234.39
2018-08-25T05:09:53.334Z,100236.33
2018-08-25T05:10:58.892Z,100240.93
2018-08-25T05:12:04.349Z,100243.30
2018-08-25T05:13:09.800Z,100243.50
2018-08-25T05:14:15.245Z,100244.67
2018-08-25T05:15:20.707Z,100245.86
2018-08-25T05:16:26.359Z,100244.52
2018-08-25T05:17:31.997Z,100240.95
2018-08-25T05:18:37.865Z,100244.72
2018-08-25T05:19:43.336Z,100239.92
2018-08-25T05:20:48.914Z,100232.52
2018-08-25T05:21:54.413Z,100229.82
2018-08-25T05:23:00.087Z,100230.41
2018-08-25T05:24:05.786Z,100225.39
2018-08-25T05:25:11.436Z,100229.03
2018-08-25T05:26:16.999Z,100231.23
2018-08-25T05:27:22.465Z,100233.11
2018-08-25T05:28:27.896Z,100237.09
2018-08-25T05:29:33.364Z,100234.13
2018-08-25T05:30:38.862Z,100240.13
2018-08-25T05:31:44.341Z,100247.89
2018-08-25T05:32:49.874Z,100253.32
2018-08-25T05:33:55.325Z,100243.70
2018-08-25T05:35:00.777Z,100248.72
2018-08-25T05:36:06.381Z,100254.48
2018-08-25T05:37:11.971Z,100248.77
2018-08-25T05:38:17.396Z,100255.78
2018-08-25T05:39:22.859Z,100256.03
2018-08-25T05:40:28.294Z,100256.32
2018-08-25T05:41:33.770Z,100250.91
2018-08-25T05:42:39.268Z,100256.64
2018-08-25T05:43:44.765Z,100257.28
2018-08-25T05:44:50.214Z,100255.08
2018-08-25T05:45:55.636Z,100258.30
2018-08-25T05:47:01.074Z,100255.10
2018-08-25T05:48:06.605Z,100259.21
2018-08-25T05:49:12.081Z,100260.44
2018-08-25T05:50:17.780Z,100258.75
2018-08-25T05:51:23.245Z,100260.28
2018-08-25T05:52:28.680Z,100258.17
2018-08-25T05:53:34.116Z,100257.66
2018-08-25T05:54:40.096Z,100260.86
2018-08-25T05:55:45.725Z,100257.39
2018-08-25T05:56:51.200Z,100257.80
2018-08-25T05:57:56.713Z,100252.89
2018-08-25T05:59:02.179Z,100257.84
2018-08-25T06:00:07.974Z,100258.23
2018-08-25T06:01:13.401Z,100259.34
2018-08-25T06:02:18.820Z,100257.41
2018-08-25T06:03:24.517Z,100258.88
2018-08-25T06:04:30.016Z,100257.90
2018-08-25T06:05:35.452Z,100253.98
2018-08-25T06:06:41.042Z,100258.95
2018-08-25T06:07:46.446Z,100257.91
2018-08-25T06:08:51.821Z,100259.12
2018-08-25T06:09:57.328Z,100255.33
2018-08-25T06:11:02.805Z,100254.44
2018-08-25T06:12:08.258Z,100252.29
2018-08-25T06:13:13.723Z,100252.58
2018-08-25T06:14:19.175Z,100257.31
2018-08-25T06:15:24.637Z,100259.95
2018-08-25T06:16:30.128Z,100257.20
2018-08-25T06:17:35.606Z,100256.61
2018-08-25T06:18:41.041Z,100254.09
2018-08-25T06:19:46.464Z,100258.60
2018-08-25T06:20:52.023Z,100257.31
2018-08-25T06:21:57.464Z,100260.72
2018-08-25T06:23:03.081Z,100259.89
2018-08-25T06:24:08.509Z,100258.43
2018-08-25T06:25:13.936Z,100260.91
2018-08-25T06:26:19.365Z,100262.71
2018-08-25T06:27:25.145Z,100264.45
2018-08-25T06:28:30.615Z,100265.80
2018-08-25T06:29:36.134Z,100266.52
2018-08-25T06:30:41.796Z,100262.71
2018-08-25T06:31:47.442Z,100263.11
2018-08-25T06:32:52.900Z,100264.40
2018-08-25T06:33:58.385Z,100264.34
2018-08-25T06:35:03.944Z,100267.86
2018-08-25T06:36:09.450Z,100264.91
2018-08-25T06:37:15.053Z,100268.63
2018-08-25T06:38:21.146Z,100266.38
2018-08-25T06:39:26.843Z,100276.55
2018-08-25T06:40:32.449Z,100265.09
2018-08-25T06:41:37.950Z,100274.08
2018-08-25T06:42:43.573Z,100275.38
2018-08-25T06:43:48.880Z,100271.52
2018-08-25T06:44:54.421Z,100277.83
2018-08-25T06:46:05.100Z,100276.85
2018-08-25T06:47:10.681Z,100272.03
2018-08-25T06:48:16.494Z,100278.57
2018-08-25T06:49:21.956Z,100285.53
2018-08-25T06:50:27.414Z,100286.52
2018-08-25T06:51:32.820Z,100287.28
2018-08-25T06:52:40.367Z,100285.71
2018-08-25T06:53:47.529Z,100290.42
2018-08-25T06:54:53.199Z,100294.14
2018-08-25T06:55:58.813Z,100296.08
2018-08-25T06:57:05.028Z,100298.14
2018-08-25T06:58:10.862Z,100300.14
2018-08-25T06:59:16.393Z,100300.45
2018-08-25T07:00:21.894Z,100296.91
2018-08-25T07:01:27.429Z,100305.14
2018-08-25T07:02:32.953Z,100301.82
2018-08-25T07:03:38.446Z,100302.00
2018-08-25T07:04:43.918Z,100300.56
2018-08-25T07:05:49.498Z,100309.56
2018-08-25T07:06:54.876Z,100320.09
2018-08-25T07:08:00.378Z,100317.66
2018-08-25T07:09:10.938Z,100317.09
2018-08-25T07:10:16.467Z,100323.38
2018-08-25T07:11:21.968Z,100321.84
2018-08-25T07:12:27.484Z,100322.36
2018-08-25T07:13:32.918Z,100327.94
2018-08-25T07:14:38.365Z,100331.13
2018-08-25T07:15:44.220Z,100339.82
2018-08-25T07:16:49.698Z,100331.80
2018-08-25T07:17:55.153Z,100338.13
2018-08-25T07:19:00.830Z,100336.22
2018-08-25T07:20:06.288Z,100339.88
2018-08-25T07:21:11.706Z,100343.62
2018-08-25T07:22:17.113Z,100342.28
2018-08-25T07:23:22.540Z,100345.73
2018-08-25T07:24:27.972Z,100343.17
2018-08-25T07:25:33.610Z,100346.59
2018-08-25T07:26:39.259Z,100346.81
2018-08-25T07:27:44.737Z,100350.11
2018-08-25T07:28:50.239Z,100352.46
2018-08-25T07:29:55.714Z,100352.92
2018-08-25T07:31:01.230Z,100355.86
2018-08-25T07:32:07.675Z,100355.44
2018-08-25T07:33:13.158Z,100363.41
2018-08-25T07:34:18.553Z,100364.70
2018-08-25T07:35:23.972Z,100368.19
2018-08-25T07:36:29.411Z,100368.64
2018-08-25T07:37:34.939Z,100373.06
2018-08-25T07:38:40.392Z,100368.45
2018-08-25T07:39:45.792Z,100380.73
2018-08-25T07:40:51.212Z,100377.59
2018-08-25T07:41:56.882Z,100376.27
2018-08-25T07:43:02.265Z,100383.41
2018-08-25T07:44:07.864Z,100385.41
2018-08-25T07:45:13.665Z,100379.69
2018-08-25T07:46:19.059Z,100380.72
2018-08-25T07:47:24.753Z,100385.86
2018-08-25T07:48:30.233Z,100391.92
2018-08-25T07:49:35.669Z,100393.31
2018-08-25T07:50:41.082Z,100394.97
2018-08-25T07:51:46.714Z,100395.16
2018-08-25T07:52:52.609Z,100392.21
2018-08-25T07:53:58.960Z,100394.88
2018-08-25T07:55:04.541Z,100400.67
2018-08-25T07:56:10.209Z,100398.05
2018-08-25T07:57:15.674Z,100396.47
2018-08-25T07:58:21.153Z,100398.05
2018-08-25T07:59:26.696Z,100402.58
2018-08-25T08:00:32.252Z,100402.33
2018-08-25T08:01:37.800Z,100405.19
2018-08-25T08:02:43.241Z,100403.91
2018-08-25T08:03:48.645Z,100405.91
2018-08-25T08:04:54.140Z,100402.31
2018-08-25T08:05:59.644Z,100406.72
2018-08-25T08:07:05.153Z,100408.27
2018-08-25T08:08:11.388Z,100409.15
2018-08-25T08:09:16.857Z,100403.01
2018-08-25T08:10:23.177Z,100412.38
2018-08-25T08:11:28.789Z,100409.23
2018-08-25T08:12:34.176Z,100414.13
2018-08-25T08:13:39.601Z,100423.59
2018-08-25T08:14:45.082Z,100417.77
2018-08-25T08:15:50.521Z,100419.36
2018-08-25T08:16:56.064Z,100426.91
2018-08-25T08:18:01.534Z,100419.70
2018-08-25T08:19:07.060Z,100425.90
2018-08-25T08:20:12.602Z,100430.31
2018-08-25T08:21:18.072Z,100434.94
2018-08-25T08:22:23.519Z,100438.94
2018-08-25T08:23:29.067Z,100439.34
2018-08-25T08:24:35.293Z,100437.34
2018-08-25T08:25:40.793Z,100436.91
2018-08-25T08:26:46.234Z,100441.77
2018-08-25T08:27:51.669Z,100443.91
2018-08-25T08:28:57.128Z,100446.62
2018-08-25T08:30:03.620Z,100448.69
2018-08-25T08:31:09.165Z,100451.73
2018-08-25T08:32:14.590Z,100456.89
2018-08-25T08:33:19.973Z,100453.87
2018-08-25T08:34:25.405Z,100456.08
2018-08-25T08:35:31.281Z,100459.02
2018-08-25T08:36:36.936Z,100460.31
2018-08-25T08:37:42.394Z,100459.67
2018-08-25T08:38:47.909Z,100461.78
2018-08-25T08:39:53.428Z,100465.80
2018-08-25T08:40:59.297Z,100465.22
2018-08-25T08:42:04.917Z,100467.67
2018-08-25T08:43:10.329Z,100470.48
2018-08-25T08:44:15.729Z,100472.60
2018-08-25T08:45:21.248Z,100471.38
2018-08-25T08:46:32.070Z,100473.66
2018-08-25T08:47:38.249Z,100478.99
2018-08-25T08:48:43.691Z,100480.59
2018-08-25T08:49:49.076Z,100479.70
2018-08-25T08:50:54.574Z,100481.59
2018-08-25T08:52:00.035Z,100484.70
2018-08-25T08:53:05.533Z,100482.54
2018-08-25T08:54:11.110Z,100489.14
2018-08-25T08:55:16.540Z,100485.91
2018-08-25T08:56:21.980Z,100483.16
2018-08-25T08:57:27.404Z,100486.55
2018-08-25T08:58:32.936Z,100483.85
2018-08-25T08:59:38.478Z,100491.23
2018-08-25T09:00:43.992Z,100488.66
2018-08-25T09:01:49.528Z,100489.19
2018-08-25T09:02:54.971Z,100491.53
2018-08-25T09:04:00.581Z,100495.30
2018-08-25T09:05:06.993Z,100492.34
2018-08-25T09:06:12.442Z,100495.04
2018-08-25T09:07:17.829Z,100491.53
2018-08-25T09:08:23.260Z,100490.48
2018-08-25T09:09:28.753Z,100497.20
2018-08-25T09:10:34.218Z,100498.72
2018-08-25T09:11:40.179Z,100498.33
2018-08-25T09:12:45.811Z,100502.37
2018-08-25T09:13:51.236Z,100504.59
2018-08-25T09:14:56.687Z,100505.24
2018-08-25T09:16:02.950Z,100501.94
2018-08-25T09:17:08.392Z,100503.42
2018-08-25T09:18:13.860Z,100505.73
2018-08-25T09:19:19.538Z,100507.76
2018-08-25T09:20:24.988Z,100509.05
2018-08-25T09:21:30.538Z,100506.66
2018-08-25T09:22:35.992Z,100509.88
2018-08-25T09:23:41.396Z,100509.97
2018-08-25T09:24:46.877Z,100511.26
2018-08-25T09:25:52.458Z,100510.30
2018-08-25T09:26:57.904Z,100512.34
2018-08-25T09:28:03.381Z,100516.58
2018-08-25T09:29:08.886Z,100518.72
2018-08-25T09:30:14.412Z,100517.78
2018-08-25T09:31:20.073Z,100516.71
2018-08-25T09:32:25.512Z,100513.06
2018-08-25T09:33:31.024Z,100519.46
2018-08-25T09:34:36.457Z,100515.13
2018-08-25T09:35:41.990Z,100512.16
2018-08-25T09:36:47.544Z,100516.65
2018-08-25T09:37:52.904Z,100518.53
2018-08-25T09:38:58.340Z,100517.72
2018-08-25T09:40:03.844Z,100522.02
2018-08-25T09:41:09.498Z,100520.73
2018-08-25T09:42:14.976Z,100526.11
2018-08-25T09:43:20.661Z,100525.10
2018-08-25T09:44:26.328Z,100524.17
2018-08-25T09:45:31.737Z,100523.62
2018-08-25T09:46:37.120Z,100525.80
2018-08-25T09:47:42.990Z,100521.13
2018-08-25T09:48:48.408Z,100524.83
2018-08-25T09:49:53.840Z,100520.94
2018-08-25T09:50:59.354Z,100526.91
2018-08-25T09:52:04.796Z,100528.87
2018-08-25T09:53:11.008Z,100530.62
2018-08-25T09:54:16.481Z,100527.09
2018-08-25T09:55:21.909Z,100531.34
2018-08-25T09:56:27.435Z,100525.17
2018-08-25T09:57:32.856Z,100536.71
2018-08-25T09:58:38.361Z,100539.18
2018-08-25T09:59:43.820Z,100534.98
2018-08-25T10:00:53.320Z,100532.39
2018-08-25T10:02:00.297Z,100530.36
2018-08-25T10:03:05.934Z,100534.59
2018-08-25T10:04:11.583Z,100534.32
2018-08-25T10:05:17.195Z,100533.27
2018-08-25T10:06:22.605Z,100543.94
2018-08-25T10:07:28.113Z,100537.31
2018-08-25T10:08:34.002Z,100538.13
2018-08-25T10:09:39.717Z,100541.73
2018-08-25T10:10:45.309Z,100537.94
2018-08-25T10:11:50.711Z,100537.11
2018-08-25T10:12:56.126Z,100533.45
2018-08-25T10:14:01.533Z,100538.33
2018-08-25T10:15:07.609Z,100544.92
2018-08-25T10:16:13.051Z,100528.83
2018-08-25T10:17:18.460Z,100532.47
2018-08-25T10:18:23.861Z,100525.57
2018-08-25T10:19:29.372Z,100528.24
2018-08-25T10:20:34.806Z,100522.83
2018-08-25T10:21:40.218Z,100533.45
2018-08-25T10:22:45.725Z,100525.25
2018-08-25T10:23:51.157Z,100527.57
2018-08-25T10:24:56.568Z,100527.17
2018-08-25T10:26:02.222Z,100528.03
2018-08-25T10:27:07.732Z,100529.17
2018-08-25T10:28:13.156Z,100523.56
2018-08-25T10:29:18.621Z,100525.45
2018-08-25T10:30:24.085Z,100522.34
2018-08-25T10:31:29.481Z,100521.98
2018-08-25T10:32:34.860Z,100521.10
2018-08-25T10:33:40.312Z,100519.17
2018-08-25T10:34:45.768Z,100518.64
2018-08-25T10:35:51.389Z,100516.34
2018-08-25T10:36:56.888Z,100515.76
2018-08-25T10:38:02.372Z,100519.77
2018-08-25T10:39:12.009Z,100517.01
2018-08-25T10:40:17.454Z,100520.19
2018-08-25T10:41:22.941Z,100525.64
2018-08-25T10:42:28.400Z,100519.81
2018-08-25T10:43:33.834Z,100526.20
2018-08-25T10:44:39.232Z,100523.06
2018-08-25T10:45:44.709Z,100519.81
2018-08-25T10:46:50.228Z,100523.88
2018-08-25T10:47:55.708Z,100523.64
2018-08-25T10:49:01.164Z,100522.98
2018-08-25T10:50:06.904Z,100529.36
2018-08-25T10:51:12.307Z,100524.66
2018-08-25T10:52:17.733Z,100528.27
2018-08-25T10:53:23.123Z,100530.02
2018-08-25T10:54:28.662Z,100526.54
2018-08-25T10:55:34.173Z,100526.14
2018-08-25T10:56:39.665Z,100537.27
2018-08-25T10:57:45.089Z,100528.95
2018-08-25T10:58:50.574Z,100529.59
2018-08-25T10:59:55.989Z,100530.80
2018-08-25T11:01:01.473Z,100530.61
2018-08-25T11:02:06.910Z,100533.13
2018-08-25T11:03:12.333Z,100538.19
2018-08-25T11:04:17.740Z,100538.27
2018-08-25T11:05:23.263Z,100541.60
2018-08-25T11:06:28.760Z,100541.78
2018-08-25T11:07:34.337Z,100535.08
2018-08-25T11:08:39.859Z,100538.14
2018-08-25T11:09:45.736Z,100541.53
2018-08-25T11:10:51.181Z,100539.83
2018-08-25T11:11:57.101Z,100552.09
2018-08-25T11:13:02.557Z,100559.22
2018-08-25T11:14:08.196Z,100570.75
2018-08-25T11:15:13.781Z,100557.67
2018-08-25T11:16:19.261Z,100557.75
2018-08-25T11:17:24.697Z,100549.77
2018-08-25T11:18:30.110Z,100554.30
2018-08-25T11:19:35.629Z,100550.84
2018-08-25T11:20:41.085Z,100551.69
2018-08-25T11:21:46.509Z,100551.95
2018-08-25T11:22:51.946Z,100547.34
2018-08-25T11:23:57.437Z,100541.77
2018-08-25T11:25:02.878Z,100545.16
2018-08-25T11:26:08.336Z,100544.54
2018-08-25T11:27:13.784Z,100538.90
2018-08-25T11:28:19.246Z,100540.09
2018-08-25T11:29:24.783Z,100535.97
2018-08-25T11:30:30.286Z,100548.37
2018-08-25T11:31:35.701Z,100552.19
2018-08-25T11:32:41.198Z,100545.39
2018-08-25T11:33:46.766Z,100551.36
2018-08-25T11:34:52.549Z,100546.41
2018-08-25T11:35:58.017Z,100547.23
2018-08-25T11:37:03.491Z,100550.91
2018-08-25T11:38:08.982Z,100549.91
2018-08-25T11:39:14.377Z,100550.33
2018-08-25T11:40:19.818Z,100546.91
2018-08-25T11:41:25.237Z,100543.62
2018-08-25T11:42:30.653Z,100537.36
2018-08-25T11:43:36.113Z,100538.84
2018-08-25T11:44:41.521Z,100543.88
2018-08-25T11:45:46.956Z,100542.50
2018-08-25T11:46:52.368Z,100545.77
2018-08-25T11:47:57.765Z,100549.88
2018-08-25T11:49:03.473Z,100548.38
2018-08-25T11:50:08.948Z,100552.56
2018-08-25T11:51:14.384Z,100554.81
2018-08-25T11:52:19.881Z,100554.90
2018-08-25T11:53:25.310Z,100555.45
2018-08-25T11:54:30.724Z,100555.19
2018-08-25T11:55:36.182Z,100558.22
2018-08-25T11:56:41.674Z,100559.61
2018-08-25T11:57:47.185Z,100563.07
2018-08-25T11:58:52.644Z,100566.66
2018-08-25T11:59:58.153Z,100568.61
2018-08-25T12:01:03.617Z,100573.14
2018-08-25T12:02:09.579Z,100577.21
2018-08-25T12:03:15.020Z,100567.48
2018-08-25T12:04:20.455Z,100567.47
2018-08-25T12:05:25.885Z,100572.08
2018-08-25T12:06:31.659Z,100574.14
2018-08-25T12:07:37.573Z,100572.59
2018-08-25T12:08:43.021Z,100569.41
2018-08-25T12:09:48.502Z,100575.16
2018-08-25T12:10:53.916Z,100576.92
2018-08-25T12:11:59.328Z,100569.25
2018-08-25T12:13:04.958Z,100580.10
2018-08-25T12:14:10.857Z,100577.56
2018-08-25T12:15:16.339Z,100563.75
2018-08-25T12:16:22.105Z,100567.88
2018-08-25T12:17:27.565Z,100571.05
2018-08-25T12:18:33.079Z,100577.05
2018-08-25T12:19:38.541Z,100575.42
2018-08-25T12:20:44.096Z,100567.14
2018-08-25T12:21:49.784Z,100574.30
2018-08-25T12:22:55.194Z,100580.13
2018-08-25T12:24:00.749Z,100578.83
2018-08-25T12:25:06.902Z,100570.00
2018-08-25T12:26:12.440Z,100580.11
2018-08-25T12:27:22.408Z,100574.09
2018-08-25T12:28:27.997Z,100573.81